Time;durP1;ratioP1;P1;durP2;ratioP2;P2;SDS_P1;SDS_P2;PMS_P1;PMS_P2;Temp;Humidity;BMP_temperature;BMP_pressure;BME280_temperature;BME280_humidity;BME280_pressure;Samples;Min_cycle;Max_cycle;Signal;HPM_P1;HPM_P2
2021/07/09 00:01:28;;;;;;;28.55;24.15;;;;;;;;;;5054750;28;20112;-62
2021/07/09 00:03:55;;;;;;;39.15;25.45;;;;;;;;;;5037213;28;20025;-61
2021/07/09 00:06:21;;;;;;;31.23;22.98;;;;;;;;;;5054997;28;20048;-62
2021/07/09 00:08:48;;;;;;;31.42;24.08;;;;;;;;;;5055161;28;20489;-62
2021/07/09 00:11:14;;;;;;;32.38;25.15;;;;;;;;;;5037987;28;20406;-61
2021/07/09 00:13:40;;;;;;;31.27;24.50;;;;;;;;;;5037474;28;20021;-62
2021/07/09 00:16:06;;;;;;;34.85;26.02;;;;;;;;;;5036601;28;20029;-62
2021/07/09 00:18:32;;;;;;;32.63;25.15;;;;;;;;;;5037301;28;20072;-62
2021/07/09 00:20:58;;;;;;;29.98;23.65;;;;;;;;;;5054715;28;20465;-62
2021/07/09 00:23:25;;;;;;;37.50;26.67;;;;;;;;;;5036816;28;20029;-61
2021/07/09 00:25:51;;;;;;;36.65;27.00;;;;;;;;;;5036118;28;20507;-61
2021/07/09 00:28:17;;;;;;;32.97;26.23;;;;;;;;;;5054840;28;20056;-62
2021/07/09 00:30:43;;;;;;;37.22;26.27;;;;;;;;;;5036512;28;20028;-63
2021/07/09 00:33:08;;;;;;;31.95;26.48;;;;;;;;;;5054516;28;20104;-61
2021/07/09 00:35:34;;;;;;;35.95;28.10;;;;;;;;;;5036065;28;20033;-62
2021/07/09 00:38:00;;;;;;;36.35;27.58;;;;;;;;;;5054611;28;20022;-61
2021/07/09 00:40:26;;;;;;;36.03;26.55;;;;;;;;;;5036656;28;20116;-62
2021/07/09 00:42:52;;;;;;;37.47;26.23;;;;;;;;;;5036983;28;20049;-62
2021/07/09 00:45:18;;;;;;;34.03;26.20;;;;;;;;;;5035877;28;20098;-62
2021/07/09 00:47:45;;;;;;;34.58;27.45;;;;;;;;;;5054381;28;20048;-62
2021/07/09 00:50:11;;;;;;;34.17;27.63;;;;;;;;;;5036208;28;20127;-62
2021/07/09 00:52:37;;;;;;;33.85;27.40;;;;;;;;;;5036327;28;20504;-62
2021/07/09 00:55:04;;;;;;;37.03;26.90;;;;;;;;;;5035606;28;20088;-62
2021/07/09 00:57:31;;;;;;;34.10;27.17;;;;;;;;;;5036174;28;20025;-62
2021/07/09 00:59:57;;;;;;;34.17;26.55;;;;;;;;;;5054085;28;20035;-62
2021/07/09 01:02:23;;;;;;;32.58;26.38;;;;;;;;;;5053918;28;20100;-62
2021/07/09 01:04:51;;;;;;;33.97;25.92;;;;;;;;;;5035321;28;20021;-62
2021/07/09 01:07:17;;;;;;;;;;;;;;;;;;5054514;28;20028;-62
2021/07/09 01:09:43;;;;;;;36.20;26.40;;;;;;;;;;5053687;28;20389;-62
2021/07/09 01:12:11;;;;;;;36.55;28.85;;;;;;;;;;5036012;28;20028;-62
2021/07/09 01:14:37;;;;;;;33.83;25.92;;;;;;;;;;5053407;28;20028;-61
2021/07/09 01:17:03;;;;;;;36.45;26.80;;;;;;;;;;5053539;28;20033;-62
2021/07/09 01:19:29;;;;;;;39.13;26.80;;;;;;;;;;5035795;28;20104;-62
2021/07/09 01:21:55;;;;;;;39.13;27.58;;;;;;;;;;5053724;28;20136;-62
2021/07/09 01:26:57;;;;;;;34.13;25.83;;;;;;;;;;5359818;22;20049;-61
2021/07/09 01:29:23;;;;;;;35.33;25.58;;;;;;;;;;5053571;28;20131;-61
2021/07/09 01:31:49;;;;;;;34.33;26.48;;;;;;;;;;5053443;28;20044;-62
2021/07/09 01:34:15;;;;;;;34.97;26.50;;;;;;;;;;5052075;28;20025;-62
2021/07/09 01:36:41;;;;;;;36.70;26.02;;;;;;;;;;5053250;28;20491;-62
2021/07/09 01:39:07;;;;;;;40.75;27.33;;;;;;;;;;5053340;28;20063;-61
2021/07/09 01:41:33;;;;;;;37.17;27.00;;;;;;;;;;5053311;28;20021;-61
2021/07/09 01:44:00;;;;;;;35.60;26.17;;;;;;;;;;5053340;28;20044;-65
2021/07/09 01:46:26;;;;;;;35.70;24.95;;;;;;;;;;5052841;28;20032;-62
2021/07/09 01:48:53;;;;;;;38.60;25.63;;;;;;;;;;5052897;28;20029;-61
2021/07/09 01:51:19;;;;;;;34.05;25.73;;;;;;;;;;5053090;28;20104;-62
2021/07/09 01:53:45;;;;;;;34.22;26.13;;;;;;;;;;5053470;28;20488;-60
2021/07/09 01:56:11;;;;;;;38.20;26.52;;;;;;;;;;5051555;28;20510;-61
2021/07/09 01:58:37;;;;;;;30.73;25.27;;;;;;;;;;5052057;28;20017;-61
2021/07/09 02:01:03;;;;;;;33.95;25.30;;;;;;;;;;5053175;28;20502;-63
2021/07/09 02:03:29;;;;;;;33.10;25.13;;;;;;;;;;5052785;28;20029;-61
2021/07/09 02:05:55;;;;;;;38.10;25.10;;;;;;;;;;5051113;28;20094;-62
2021/07/09 02:08:21;;;;;;;38.00;25.80;;;;;;;;;;5052833;28;20021;-61
2021/07/09 02:10:47;;;;;;;32.63;24.88;;;;;;;;;;5051949;28;20435;-62
2021/07/09 02:13:13;;;;;;;31.52;23.80;;;;;;;;;;5052977;28;20104;-62
2021/07/09 02:15:41;;;;;;;32.35;23.80;;;;;;;;;;5051478;28;20025;-62
2021/07/09 02:18:08;;;;;;;35.13;25.47;;;;;;;;;;5051487;28;20512;-62
2021/07/09 02:20:35;;;;;;;36.00;26.27;;;;;;;;;;5052673;28;20264;-62
2021/07/09 02:23:01;;;;;;;36.35;26.33;;;;;;;;;;5050582;28;20029;-61
2021/07/09 02:25:28;;;;;;;34.13;24.88;;;;;;;;;;5051118;28;20412;-62
2021/07/09 02:27:55;;;;;;;36.00;26.00;;;;;;;;;;5051151;28;20445;-61
2021/07/09 02:30:21;;;;;;;35.17;25.52;;;;;;;;;;5052510;28;20151;-63
2021/07/09 02:32:48;;;;;;;34.33;24.88;;;;;;;;;;5051288;28;20032;-62
2021/07/09 02:35:18;;;;;;;36.45;26.02;;;;;;;;;;5051244;28;20125;-60
2021/07/09 02:37:44;;;;;;;38.30;25.92;;;;;;;;;;5051638;28;20542;-60
2021/07/09 02:40:12;;;;;;;35.67;26.63;;;;;;;;;;5051703;28;20154;-61
2021/07/09 02:42:39;;;;;;;37.95;26.77;;;;;;;;;;5052935;28;20399;-61
2021/07/09 02:45:05;;;;;;;42.47;26.40;;;;;;;;;;5051190;28;20020;-60
2021/07/09 02:47:31;;;;;;;34.38;25.75;;;;;;;;;;5051318;28;20120;-62
2021/07/09 02:49:57;;;;;;;36.58;26.58;;;;;;;;;;5052366;28;20064;-62
2021/07/09 02:52:23;;;;;;;35.85;25.02;;;;;;;;;;5051191;28;20032;-61
2021/07/09 02:54:49;;;;;;;35.45;24.60;;;;;;;;;;5050859;28;20061;-61
2021/07/09 02:57:15;;;;;;;33.75;25.13;;;;;;;;;;5051769;28;20112;-61
2021/07/09 02:59:41;;;;;;;32.35;23.30;;;;;;;;;;5052025;28;20218;-63
2021/07/09 03:02:07;;;;;;;33.05;23.17;;;;;;;;;;5052161;28;20033;-63
2021/07/09 03:04:33;;;;;;;32.13;23.23;;;;;;;;;;5052089;28;20068;-62
2021/07/09 03:06:59;;;;;;;31.83;21.63;;;;;;;;;;5050892;28;20021;-63
2021/07/09 03:09:25;;;;;;;32.78;22.90;;;;;;;;;;5050612;28;20052;-63
2021/07/09 03:11:51;;;;;;;28.92;20.10;;;;;;;;;;5051871;28;20028;-62
2021/07/09 03:14:17;;;;;;;26.75;17.95;;;;;;;;;;5050669;28;20409;-62
2021/07/09 03:16:43;;;;;;;26.52;16.70;;;;;;;;;;5051611;28;20025;-62
2021/07/09 03:19:09;;;;;;;26.25;18.02;;;;;;;;;;5052020;28;20099;-62
2021/07/09 03:21:36;;;;;;;28.58;19.02;;;;;;;;;;5052047;28;20100;-62
2021/07/09 03:24:02;;;;;;;30.40;20.05;;;;;;;;;;5051818;28;20040;-63
2021/07/09 03:26:28;;;;;;;30.55;20.98;;;;;;;;;;5050419;28;20127;-62
2021/07/09 03:28:57;;;;;;;31.25;20.83;;;;;;;;;;5050695;28;20083;-62
2021/07/09 03:31:24;;;;;;;29.55;20.20;;;;;;;;;;5050615;28;20029;-62
2021/07/09 03:33:50;;;;;;;30.30;21.00;;;;;;;;;;5051176;28;20496;-62
2021/07/09 03:36:16;;;;;;;33.40;22.05;;;;;;;;;;5055664;28;20071;-62
2021/07/09 03:38:42;;;;;;;34.05;21.15;;;;;;;;;;5055492;28;20132;-61
2021/07/09 03:41:08;;;;;;;32.10;21.83;;;;;;;;;;5054662;28;20082;-61
2021/07/09 03:43:34;;;;;;;29.48;18.95;;;;;;;;;;5054478;28;20112;-62
2021/07/09 03:46:00;;;;;;;38.72;21.83;;;;;;;;;;5054331;28;20054;-63
2021/07/09 03:48:26;;;;;;;28.40;19.52;;;;;;;;;;5055398;28;20437;-63
2021/07/09 03:50:52;;;;;;;28.05;18.55;;;;;;;;;;5055055;28;20108;-62
2021/07/09 03:53:18;;;;;;;27.13;18.05;;;;;;;;;;5055321;28;20076;-63
2021/07/09 03:55:44;;;;;;;25.65;17.20;;;;;;;;;;5053625;28;20024;-63
2021/07/09 03:58:10;;;;;;;25.95;17.00;;;;;;;;;;5055467;28;20025;-62
2021/07/09 04:00:36;;;;;;;33.80;16.33;;;;;;;;;;5055238;28;20021;-60
2021/07/09 04:03:02;;;;;;;26.05;15.18;;;;;;;;;;5055234;28;20117;-60
2021/07/09 04:05:28;;;;;;;25.17;15.27;;;;;;;;;;5054748;28;20448;-64
2021/07/09 04:07:54;;;;;;;27.13;15.77;;;;;;;;;;5055016;28;20468;-62
2021/07/09 04:10:20;;;;;;;27.25;16.63;;;;;;;;;;5055168;28;20032;-60
2021/07/09 04:12:47;;;;;;;26.00;15.88;;;;;;;;;;5054850;28;20021;-62
2021/07/09 04:15:12;;;;;;;26.90;16.42;;;;;;;;;;5054718;28;20032;-63
2021/07/09 04:17:39;;;;;;;25.23;15.95;;;;;;;;;;5054786;28;20115;-62
2021/07/09 04:20:05;;;;;;;23.77;16.00;;;;;;;;;;5054559;28;20104;-62
2021/07/09 04:22:31;;;;;;;26.02;15.57;;;;;;;;;;5053446;28;20033;-62
2021/07/09 04:24:57;;;;;;;25.85;15.18;;;;;;;;;;5054860;28;20048;-63
2021/07/09 04:27:23;;;;;;;24.45;16.40;;;;;;;;;;5053141;28;20373;-62
2021/07/09 04:29:49;;;;;;;26.50;16.20;;;;;;;;;;5053313;28;20108;-63
2021/07/09 04:32:15;;;;;;;25.52;16.67;;;;;;;;;;5054653;28;20045;-63
2021/07/09 04:34:41;;;;;;;28.33;16.95;;;;;;;;;;5054326;28;20031;-58
2021/07/09 04:37:10;;;;;;;26.58;16.75;;;;;;;;;;5052746;28;20021;-62
2021/07/09 04:39:38;;;;;;;28.70;16.52;;;;;;;;;;5054312;28;20097;-62
2021/07/09 04:42:05;;;;;;;27.38;16.05;;;;;;;;;;5054363;28;20131;-62
2021/07/09 04:44:31;;;;;;;27.95;17.02;;;;;;;;;;5054497;28;20480;-63
2021/07/09 04:46:57;;;;;;;25.35;16.92;;;;;;;;;;5053318;28;20033;-63
2021/07/09 04:49:23;;;;;;;29.40;16.48;;;;;;;;;;5053033;28;20033;-62
2021/07/09 04:51:50;;;;;;;25.88;17.38;;;;;;;;;;5052716;28;20032;-63
2021/07/09 04:54:16;;;;;;;28.33;17.88;;;;;;;;;;5054194;28;20025;-62
2021/07/09 04:56:42;;;;;;;29.98;17.48;;;;;;;;;;5053626;28;20090;-60
2021/07/09 04:59:08;;;;;;;26.15;17.20;;;;;;;;;;5054003;28;20073;-61
2021/07/09 05:01:34;;;;;;;28.02;17.17;;;;;;;;;;5052693;28;20021;-63
2021/07/09 05:04:00;;;;;;;29.80;17.55;;;;;;;;;;5053929;28;20029;-64
2021/07/09 05:06:26;;;;;;;29.70;18.00;;;;;;;;;;5051805;28;20518;-63
2021/07/09 05:08:52;;;;;;;31.15;19.88;;;;;;;;;;5052654;28;20029;-62
2021/07/09 05:11:18;;;;;;;27.77;18.15;;;;;;;;;;5052774;28;20071;-62
2021/07/09 05:13:45;;;;;;;29.98;18.20;;;;;;;;;;5054254;28;20029;-61
2021/07/09 05:16:11;;;;;;;27.63;17.85;;;;;;;;;;5053330;28;20079;-61
2021/07/09 05:18:37;;;;;;;30.15;18.20;;;;;;;;;;5052711;28;20423;-63
2021/07/09 05:21:03;;;;;;;29.05;17.17;;;;;;;;;;5053869;28;20082;-62
2021/07/09 05:23:29;;;;;;;30.95;17.55;;;;;;;;;;5053709;28;20033;-62
2021/07/09 05:25:55;;;;;;;30.00;16.73;;;;;;;;;;5053354;28;20032;-62
2021/07/09 05:28:21;;;;;;;28.73;16.85;;;;;;;;;;5053682;28;20191;-62
2021/07/09 05:30:47;;;;;;;25.92;17.75;;;;;;;;;;5053742;28;20380;-62
2021/07/09 05:33:17;;;;;;;27.30;17.58;;;;;;;;;;5053483;28;20032;-61
2021/07/09 05:35:43;;;;;;;27.92;17.95;;;;;;;;;;5051659;28;20024;-63
2021/07/09 05:38:09;;;;;;;28.35;18.08;;;;;;;;;;5052281;28;20122;-63
2021/07/09 05:40:35;;;;;;;27.10;17.40;;;;;;;;;;5053271;28;20040;-63
2021/07/09 05:43:01;;;;;;;26.45;17.88;;;;;;;;;;5053239;28;20051;-63
2021/07/09 05:45:28;;;;;;;30.60;17.25;;;;;;;;;;5052583;28;20079;-63
2021/07/09 05:47:54;;;;;;;28.50;18.13;;;;;;;;;;5052755;28;20472;-64
2021/07/09 05:50:21;;;;;;;30.98;17.25;;;;;;;;;;5053225;28;20055;-62
2021/07/09 05:52:48;;;;;;;28.95;17.20;;;;;;;;;;5052095;28;20384;-62
2021/07/09 05:55:14;;;;;;;25.88;15.95;;;;;;;;;;5052867;28;20044;-64
2021/07/09 05:57:40;;;;;;;25.83;15.40;;;;;;;;;;5051522;28;20025;-63
2021/07/09 06:00:07;;;;;;;27.88;15.65;;;;;;;;;;5051643;28;20056;-63
2021/07/09 06:02:33;;;;;;;27.38;15.80;;;;;;;;;;5051314;28;20021;-63
2021/07/09 06:04:59;;;;;;;27.60;16.63;;;;;;;;;;5047890;28;20056;-62
2021/07/09 06:07:25;;;;;;;30.10;15.38;;;;;;;;;;5044949;28;20049;-67
2021/07/09 06:09:51;;;;;;;28.17;16.88;;;;;;;;;;5048346;28;20384;-67
2021/07/09 06:12:17;;;;;;;25.23;16.85;;;;;;;;;;5051891;28;20108;-67
2021/07/09 06:14:43;;;;;;;26.92;15.95;;;;;;;;;;5031601;28;20060;-68
2021/07/09 06:17:10;;;;;;;25.65;14.60;;;;;;;;;;5032392;28;20147;-66
2021/07/09 06:19:36;;;;;;;27.27;16.67;;;;;;;;;;5032524;28;20033;-67
2021/07/09 06:22:02;;;;;;;24.15;15.70;;;;;;;;;;5042467;28;20033;-66
2021/07/09 06:24:28;;;;;;;28.00;15.65;;;;;;;;;;5052494;28;20036;-67
2021/07/09 06:26:54;;;;;;;26.48;16.67;;;;;;;;;;5051740;28;20033;-68
2021/07/09 06:29:20;;;;;;;28.20;16.30;;;;;;;;;;5051360;28;20017;-67
2021/07/09 06:31:46;;;;;;;26.20;16.27;;;;;;;;;;5052697;28;20036;-67
2021/07/09 06:34:12;;;;;;;24.45;14.65;;;;;;;;;;5051322;28;20033;-68
2021/07/09 06:36:38;;;;;;;24.70;15.25;;;;;;;;;;5050518;28;20546;-67
2021/07/09 06:39:04;;;;;;;25.02;15.05;;;;;;;;;;5041856;28;20060;-67
2021/07/09 06:41:30;;;;;;;22.98;13.98;;;;;;;;;;5032417;28;20093;-66
2021/07/09 06:43:57;;;;;;;26.60;14.60;;;;;;;;;;5032251;28;20057;-67
2021/07/09 06:46:24;;;;;;;25.90;14.68;;;;;;;;;;5031463;28;20025;-67
2021/07/09 06:48:50;;;;;;;25.73;14.18;;;;;;;;;;5030563;28;20033;-66
2021/07/09 06:51:16;;;;;;;28.92;15.80;;;;;;;;;;5031766;28;20114;-66
2021/07/09 06:53:42;;;;;;;24.83;14.40;;;;;;;;;;5032023;28;20445;-67
2021/07/09 06:56:08;;;;;;;22.35;13.95;;;;;;;;;;5031765;28;20110;-65
2021/07/09 06:58:34;;;;;;;24.23;13.98;;;;;;;;;;5032024;28;20508;-65
2021/07/09 07:01:00;;;;;;;25.55;14.52;;;;;;;;;;5031975;28;20029;-65
2021/07/09 07:03:26;;;;;;;27.70;14.75;;;;;;;;;;5030388;28;20021;-65
2021/07/09 07:05:51;;;;;;;23.92;13.82;;;;;;;;;;5047937;28;20415;-65
2021/07/09 07:08:19;;;;;;;24.88;14.25;;;;;;;;;;5051618;28;20021;-66
2021/07/09 07:10:46;;;;;;;22.77;13.70;;;;;;;;;;5055618;28;20135;-64
2021/07/09 07:13:13;;;;;;;22.02;13.30;;;;;;;;;;5055682;28;20108;-64
2021/07/09 07:15:39;;;;;;;24.05;13.98;;;;;;;;;;5054639;28;20548;-65
2021/07/09 07:18:08;;;;;;;23.58;14.48;;;;;;;;;;5055264;28;20025;-64
2021/07/09 07:20:35;;;;;;;22.30;12.82;;;;;;;;;;5055818;28;20024;-65
2021/07/09 07:23:01;;;;;;;21.83;13.82;;;;;;;;;;5055603;28;20096;-66
2021/07/09 07:25:27;;;;;;;20.73;13.05;;;;;;;;;;5055353;28;20083;-66
2021/07/09 07:27:53;;;;;;;24.02;12.82;;;;;;;;;;5055272;28;20037;-65
2021/07/09 07:30:19;;;;;;;20.95;13.35;;;;;;;;;;5054311;28;20061;-64
2021/07/09 07:32:48;;;;;;;19.92;12.73;;;;;;;;;;5055350;28;20033;-65
2021/07/09 07:35:14;;;;;;;19.67;12.48;;;;;;;;;;5054974;28;20021;-61
2021/07/09 07:37:40;;;;;;;21.05;12.48;;;;;;;;;;5055463;28;20035;-62
2021/07/09 07:40:06;;;;;;;24.23;14.82;;;;;;;;;;5052577;22;20049;-63
2021/07/09 07:42:33;;;;;;;22.10;12.75;;;;;;;;;;5034255;28;20057;-62
2021/07/09 07:44:58;;;;;;;20.20;12.15;;;;;;;;;;5034276;28;20029;-60
2021/07/09 07:47:24;;;;;;;23.38;12.50;;;;;;;;;;5035280;28;20034;-62
2021/07/09 07:49:50;;;;;;;22.10;12.35;;;;;;;;;;5035074;28;20041;-57
2021/07/09 07:52:16;;;;;;;23.17;12.95;;;;;;;;;;5017643;28;20373;-62
2021/07/09 07:54:42;;;;;;;22.80;13.43;;;;;;;;;;5017638;28;20060;-63
2021/07/09 07:57:08;;;;;;;22.30;13.05;;;;;;;;;;5017138;28;20149;-62
2021/07/09 07:59:34;;;;;;;22.60;13.30;;;;;;;;;;5017900;28;20056;-62
2021/07/09 08:02:00;;;;;;;23.23;13.07;;;;;;;;;;5017651;28;20543;-62
2021/07/09 08:04:26;;;;;;;22.00;13.18;;;;;;;;;;5017796;28;20029;-60
2021/07/09 08:06:52;;;;;;;22.38;13.35;;;;;;;;;;5017620;28;20026;-62
2021/07/09 08:09:18;;;;;;;22.48;13.18;;;;;;;;;;5017482;28;20033;-63
2021/07/09 08:11:44;;;;;;;24.55;13.65;;;;;;;;;;5017473;28;20098;-62
2021/07/09 08:14:10;;;;;;;23.48;12.75;;;;;;;;;;5017295;28;20030;-62
2021/07/09 08:16:36;;;;;;;24.10;13.85;;;;;;;;;;5017250;28;20496;-62
2021/07/09 08:19:02;;;;;;;22.38;13.45;;;;;;;;;;5017228;28;20051;-63
2021/07/09 08:21:28;;;;;;;23.02;14.30;;;;;;;;;;5015933;28;20041;-62
2021/07/09 08:23:55;;;;;;;25.48;15.10;;;;;;;;;;5034941;28;20096;-61
2021/07/09 08:26:21;;;;;;;21.98;13.93;;;;;;;;;;5016784;28;20083;-61
2021/07/09 08:28:47;;;;;;;21.77;13.30;;;;;;;;;;5034657;28;20561;-61
2021/07/09 08:31:13;;;;;;;25.48;14.27;;;;;;;;;;5016898;28;20676;-61
2021/07/09 08:33:39;;;;;;;25.52;14.77;;;;;;;;;;5034443;28;20432;-62
2021/07/09 08:36:05;;;;;;;23.25;13.65;;;;;;;;;;5016626;28;20072;-64
2021/07/09 08:38:31;;;;;;;23.65;14.77;;;;;;;;;;5016743;28;20025;-63
2021/07/09 08:40:57;;;;;;;26.10;14.70;;;;;;;;;;5016732;28;20439;-64
2021/07/09 08:43:23;;;;;;;23.60;14.10;;;;;;;;;;5016887;28;20053;-61
2021/07/09 08:45:49;;;;;;;23.08;14.52;;;;;;;;;;5017047;28;20034;-62
2021/07/09 08:48:16;;;;;;;25.25;15.13;;;;;;;;;;5034304;28;20067;-62
2021/07/09 08:50:42;;;;;;;27.98;15.95;;;;;;;;;;5034506;28;20026;-62
2021/07/09 08:53:08;;;;;;;27.05;15.02;;;;;;;;;;5017029;28;20022;-62
2021/07/09 08:55:34;;;;;;;25.58;14.63;;;;;;;;;;5034339;28;20481;-62
2021/07/09 08:58:00;;;;;;;27.10;16.92;;;;;;;;;;5034423;28;20033;-63
2021/07/09 09:00:26;;;;;;;26.42;16.15;;;;;;;;;;5016455;28;20027;-62
2021/07/09 09:02:53;;;;;;;30.75;17.65;;;;;;;;;;5034378;28;20388;-62
2021/07/09 09:05:23;;;;;;;30.60;16.98;;;;;;;;;;5008094;28;20061;-62
2021/07/09 09:07:57;;;;;;;26.02;16.13;;;;;;;;;;5014543;28;20030;-63
2021/07/09 09:10:34;;;;;;;26.75;18.58;;;;;;;;;;4996794;28;20370;-61
2021/07/09 09:13:09;;;;;;;26.00;18.00;;;;;;;;;;5014268;28;20029;-62
2021/07/09 09:15:35;;;;;;;31.77;18.85;;;;;;;;;;5013809;28;20022;-62
2021/07/09 09:18:21;;;;;;;28.42;18.98;;;;;;;;;;5014048;28;20025;-62
2021/07/09 09:20:58;;;;;;;28.63;19.70;;;;;;;;;;4996549;28;20018;-62
2021/07/09 09:23:25;;;;;;;29.77;19.95;;;;;;;;;;4996227;28;20025;-62
2021/07/09 09:25:51;;;;;;;28.42;20.30;;;;;;;;;;5013623;28;20100;-62
2021/07/09 09:28:17;;;;;;;28.45;19.35;;;;;;;;;;5014009;28;20072;-62
2021/07/09 09:30:45;;;;;;;28.33;18.23;;;;;;;;;;4996288;28;20026;-62
2021/07/09 09:33:12;;;;;;;26.30;18.60;;;;;;;;;;5013470;28;20048;-62
2021/07/09 09:35:42;;;;;;;28.90;18.77;;;;;;;;;;5013394;28;20029;-63
2021/07/09 09:38:10;;;;;;;28.23;19.02;;;;;;;;;;4996130;28;20434;-63
2021/07/09 09:40:36;;;;;;;29.60;20.25;;;;;;;;;;4995432;28;20026;-63
2021/07/09 09:43:07;;;;;;;26.15;19.52;;;;;;;;;;5013583;28;20022;-62
2021/07/09 09:45:34;;;;;;;31.35;20.08;;;;;;;;;;4995575;28;20076;-63
2021/07/09 09:48:04;;;;;;;28.70;21.52;;;;;;;;;;5013883;28;20177;-64
2021/07/09 09:50:30;;;;;;;32.53;20.85;;;;;;;;;;5013795;28;20105;-61
2021/07/09 09:52:56;;;;;;;28.08;20.67;;;;;;;;;;4995929;28;20029;-62
2021/07/09 09:55:23;;;;;;;26.88;20.20;;;;;;;;;;4996013;28;20022;-63
2021/07/09 09:58:07;;;;;;;27.40;21.02;;;;;;;;;;4996135;28;20037;-63
2021/07/09 10:00:33;;;;;;;29.10;21.05;;;;;;;;;;4995583;28;20493;-62
2021/07/09 10:03:02;;;;;;;29.35;21.63;;;;;;;;;;5013228;28;20029;-62
2021/07/09 10:05:28;;;;;;;;;;;;;;;;;;5022714;28;20053;-62
2021/07/09 10:07:56;;;;;;;27.88;20.55;;;;;;;;;;5015384;28;19948;-62
2021/07/09 10:10:22;;;;;;;30.40;19.85;;;;;;;;;;5032730;28;20108;-62
2021/07/09 10:12:49;;;;;;;28.75;19.42;;;;;;;;;;5032681;28;20029;-63
2021/07/09 10:15:16;;;;;;;28.98;21.02;;;;;;;;;;5032237;28;20663;-62
2021/07/09 10:17:43;;;;;;;26.77;21.02;;;;;;;;;;5015173;28;20393;-63
2021/07/09 10:20:10;;;;;;;26.73;19.23;;;;;;;;;;5015185;28;20029;-62
2021/07/09 10:22:36;;;;;;;26.60;19.92;;;;;;;;;;5032597;28;20477;-63
2021/07/09 10:25:02;;;;;;;26.10;17.63;;;;;;;;;;5033026;28;20025;-62
2021/07/09 10:27:29;;;;;;;24.75;18.23;;;;;;;;;;5032683;28;20033;-61
2021/07/09 10:29:55;;;;;;;24.42;18.50;;;;;;;;;;5031830;28;20103;-62
2021/07/09 10:32:33;;;;;;;26.27;18.02;;;;;;;;;;5032474;28;20037;-62
2021/07/09 10:35:00;;;;;;;23.90;16.65;;;;;;;;;;5014662;28;20552;-62
2021/07/09 10:37:29;;;;;;;22.70;15.73;;;;;;;;;;5031545;28;20018;-61
2021/07/09 10:40:09;;;;;;;24.48;17.00;;;;;;;;;;5014112;28;20466;-61
2021/07/09 10:42:39;;;;;;;22.40;15.57;;;;;;;;;;5014103;28;20044;-63
2021/07/09 10:45:13;;;;;;;23.60;16.38;;;;;;;;;;5013874;28;20014;-61
2021/07/09 10:47:44;;;;;;;24.25;16.17;;;;;;;;;;5014656;28;20079;-62
2021/07/09 10:50:14;;;;;;;23.70;16.08;;;;;;;;;;5014206;28;20033;-62
2021/07/09 10:52:52;;;;;;;23.88;16.50;;;;;;;;;;5013961;28;20087;-62
2021/07/09 10:55:18;;;;;;;;;;;;;;;;;;5032241;28;20036;-60
2021/07/09 10:58:04;;;;;;;23.55;15.73;;;;;;;;;;5031812;28;19913;-61
2021/07/09 11:00:30;;;;;;;23.05;15.45;;;;;;;;;;5031385;28;20105;-60
2021/07/09 11:03:00;;;;;;;22.10;15.35;;;;;;;;;;5014194;28;20048;-62
2021/07/09 11:05:44;;;;;;;22.65;15.38;;;;;;;;;;5031636;28;20029;-60
2021/07/09 11:08:29;;;;;;;22.85;14.60;;;;;;;;;;5032035;28;20035;-58
2021/07/09 11:10:58;;;;;;;21.67;13.32;;;;;;;;;;5031888;28;20392;-62
2021/07/09 11:13:44;;;;;;;21.10;14.68;;;;;;;;;;5031862;28;20523;-58
2021/07/09 11:16:25;;;;;;;21.85;13.68;;;;;;;;;;5013920;28;20040;-62
2021/07/09 11:18:54;;;;;;;20.38;15.02;;;;;;;;;;5013895;28;20075;-61
2021/07/09 11:21:29;;;;;;;22.42;13.85;;;;;;;;;;5031345;28;20076;-60
2021/07/09 11:23:57;;;;;;;22.58;14.52;;;;;;;;;;5013999;28;20025;-62
2021/07/09 11:26:23;;;;;;;21.77;15.30;;;;;;;;;;5013661;28;20036;-62
2021/07/09 11:28:49;;;;;;;19.58;13.25;;;;;;;;;;5014006;28;20029;-59
2021/07/09 11:31:36;;;;;;;18.42;12.85;;;;;;;;;;5014294;28;20033;-62
2021/07/09 11:34:02;;;;;;;20.42;13.77;;;;;;;;;;5014117;28;20128;-62
2021/07/09 11:36:28;;;;;;;18.23;12.65;;;;;;;;;;5031659;28;20026;-62
2021/07/09 11:39:14;;;;;;;18.33;12.55;;;;;;;;;;5031559;28;20080;-62
2021/07/09 11:42:06;;;;;;;17.65;13.23;;;;;;;;;;5031533;28;20038;-61
2021/07/09 11:44:39;;;;;;;19.65;14.77;;;;;;;;;;5029932;28;20034;-62
2021/07/09 11:47:17;;;;;;;19.52;13.90;;;;;;;;;;5031520;28;20528;-61
2021/07/09 11:49:50;;;;;;;19.95;15.02;;;;;;;;;;5031389;28;20029;-62
2021/07/09 11:52:21;;;;;;;19.80;14.30;;;;;;;;;;5031619;28;20029;-62
2021/07/09 11:54:48;;;;;;;19.23;14.20;;;;;;;;;;5032387;28;20025;-63
2021/07/09 11:57:18;;;;;;;20.38;14.43;;;;;;;;;;5034934;28;20112;-62
2021/07/09 11:59:44;;;;;;;18.55;14.02;;;;;;;;;;5017367;28;20022;-62
2021/07/09 12:02:18;;;;;;;20.33;14.90;;;;;;;;;;5035515;28;20034;-62
2021/07/09 12:05:06;;;;;;;18.65;13.90;;;;;;;;;;5017663;28;20033;-62
2021/07/09 12:07:36;;;;;;;19.15;14.80;;;;;;;;;;5035402;28;20023;-59
2021/07/09 12:10:05;;;;;;;20.10;15.98;;;;;;;;;;5035951;28;20401;-63
2021/07/09 12:12:38;;;;;;;19.10;15.25;;;30.90;92.70;;;;;;5018318;28;20032;-64
2021/07/09 12:15:21;;;;;;;21.08;15.25;;;;;;;;;;5018501;28;20405;-61
2021/07/09 12:17:51;;;;;;;18.30;15.23;;;;;;;;;;5018197;28;20370;-64
2021/07/09 12:20:24;;;;;;;19.83;16.35;;;;;;;;;;5035199;28;20014;-63
2021/07/09 12:22:50;;;;;;;20.63;16.92;;;;;;;;;;5034621;28;20025;-63
2021/07/09 12:25:22;;;;;;;20.88;16.63;;;;;;;;;;5034718;28;20026;-62
2021/07/09 12:27:48;;;;;;;23.77;15.88;;;;;;;;;;5034717;28;20081;-63
2021/07/09 12:30:18;;;;;;;20.50;15.85;;;;;;;;;;5034157;28;20041;-62
2021/07/09 12:32:52;;;;;;;18.88;14.98;;;;;;;;;;5034803;28;20021;-63
2021/07/09 12:35:18;;;;;;;19.85;15.02;;;;;;;;;;5034206;28;20397;-63
2021/07/09 12:37:55;;;;;;;19.23;15.30;;;;;;;;;;5034544;28;20052;-63
2021/07/09 12:40:21;;;;;;;19.70;15.98;;;;;;;;;;5034689;28;20378;-62
2021/07/09 12:42:48;;;;;;;21.20;17.00;;;;;;;;;;5034719;28;20037;-63
2021/07/09 12:45:15;;;;;;;22.60;16.83;;;;;;;;;;5034656;28;20014;-62
2021/07/09 12:47:52;;;;;;;20.17;16.05;;;;;;;;;;5017287;28;20056;-62
2021/07/09 12:50:20;;;;;;;21.50;16.23;;;;;;;;;;5034603;28;20477;-62
2021/07/09 12:52:46;;;;;;;20.23;15.60;;;;;;;;;;5016736;28;20039;-61
2021/07/09 12:55:31;;;;;;;19.00;14.95;;;;;;;;;;5034029;28;20030;-62
2021/07/09 12:58:07;;;;;;;19.75;15.05;;;;;;;;;;5034342;28;20064;-63
2021/07/09 13:00:53;;;;;;;19.58;15.07;;;;;;;;;;5033665;28;20499;-63
2021/07/09 13:03:24;;;;;;;19.13;14.27;;;;;;;;;;5034018;28;20022;-64
2021/07/09 13:06:02;;;;;;;21.10;16.27;;;;;;;;;;5015922;28;20029;-63
2021/07/09 13:08:28;;;;;;;20.30;16.13;;;;;;;;;;5015621;28;20515;-60
2021/07/09 13:11:07;;;;;;;23.10;16.35;;;;;;;;;;5033777;28;20049;-63
2021/07/09 13:13:42;;;;;;;18.77;15.73;;;29.50;99.20;;;;;;5015878;28;20017;-63
2021/07/09 13:16:09;;;;;;;20.10;15.52;;;;;;;;;;5033612;28;20021;-63
2021/07/09 13:18:36;;;;;;;20.20;15.07;;;;;;;;;;5016375;28;20060;-63
2021/07/09 13:21:06;;;;;;;18.73;16.40;;;;;;;;;;5015864;28;20480;-63
2021/07/09 13:23:33;;;;;;;20.85;16.35;;;;;;;;;;5034107;28;20025;-63
2021/07/09 13:26:10;;;;;;;19.98;15.18;;;31.50;96.70;;;;;;5033919;28;20163;-63
2021/07/09 13:28:37;;;;;;;19.77;15.80;;;;;;;;;;5016449;28;20052;-62
2021/07/09 13:31:03;;;;;;;22.52;20.23;;;;;;;;;;5033541;28;20025;-61
2021/07/09 13:33:29;;;;;;;21.67;19.30;;;;;;;;;;5033149;28;20040;-64
2021/07/09 13:35:55;;;;;;;21.88;19.58;;;;;;;;;;5033207;28;20420;-60
2021/07/09 13:38:21;;;;;;;22.63;19.40;;;;;;;;;;5015836;28;20500;-60
2021/07/09 13:40:47;;;;;;;22.98;19.35;;;;;;;;;;5070246;22;20127;-62
2021/07/09 13:43:14;;;;;;;21.10;18.23;;;;;;;;;;5054421;28;20028;-62
2021/07/09 13:45:40;;;;;;;22.92;18.55;;;;;;;;;;5054557;28;20032;-62
2021/07/09 13:48:06;;;;;;;22.63;18.30;;;;;;;;;;5072248;28;20021;-62
2021/07/09 13:50:32;;;;;;;21.42;18.08;;;;;;;;;;5072165;28;20456;-62
2021/07/09 13:52:58;;;;;;;22.67;19.42;;;;;;;;;;5054438;28;20029;-60
2021/07/09 13:55:25;;;;;;;23.38;19.15;;;;;;;;;;5054884;28;20080;-62
2021/07/09 13:57:51;;;;;;;21.77;19.48;;;;;;;;;;5072377;28;20032;-63
2021/07/09 14:00:17;;;;;;;21.33;18.63;;;;;;;;;;5054525;28;20056;-59
2021/07/09 14:02:43;;;;;;;21.63;19.23;;;;;;;;;;5072437;28;20032;-61
2021/07/09 14:05:10;;;;;;;23.75;20.17;;;;;;;;;;5065396;28;20017;-60
2021/07/09 14:07:36;;;;;;;22.17;19.73;;;;;;;;;;5052078;28;20021;-61
2021/07/09 14:10:07;;;;;;;24.65;19.92;;;;;;;;;;5052213;28;20523;-61
2021/07/09 14:12:36;;;;;;;22.48;19.88;;;;;;;;;;5051982;28;20027;-59
2021/07/09 14:15:05;;;;;;;21.60;19.30;;;;;;;;;;5052208;28;20039;-61
2021/07/09 14:17:31;;;;;;;21.80;18.33;;;;;;;;;;5051856;28;20025;-58
2021/07/09 14:19:57;;;;;;;22.38;19.92;;;;;;;;;;5051120;28;20025;-59
2021/07/09 14:22:23;;;;;;;21.20;18.52;;;;;;;;;;5051622;28;20035;-64